»·PEaware :: CGMWT KSFO-KRDD

CGMWT :: KSFO-KRDD

FLIGHT INFORMATION

Flight Status: Arrived
Operator: Unknown
More flights by this operator :: More flights under this callsign
Pilot: Konrad W. (32064)
Aircraft: Diamond DA-40
(DA40)
More flights by this aircraft type
Origin: KSFO San Francisco Intl
United States
Destination: KRDD Redding Mun
United States
More flights between these airports :: More routes between these airports
Route: +
File this flight plan on PilotEdge
Remarks:
Altitude:
(Current/Filed)
4,500ft
Speed:
(Current/Filed)
120kts
Departed: 29-Oct-20 05:37 PM
Arrived: 29-Oct-20 07:14 PM
Distance/Time
Traveled:
173nm/1:37
Distance/Time
To Go:
Arrived

Flight Plot

Page will automatically refresh every two minutes.

Flight plan parsing failed; only flown route is shown


Map Options




Map Legend


Flown Route
Filed Route
Departure Airport
Arrival Airport
Navaid (VOR, NDB)
Fix

Horizontal Profiles

Position Reports

Time Latitude Longitude Heading Altitude Ground
Speed
29-Oct-20 17:27 37.627681 -122.383150 299 9ft 0kts
29-Oct-20 17:28 37.627680 -122.383150 299 9ft 0kts
29-Oct-20 17:29 37.627680 -122.383150 298 9ft 0kts
29-Oct-20 17:30 37.627680 -122.383150 298 9ft 0kts
29-Oct-20 17:31 37.626194 -122.383663 116 8ft 21kts
29-Oct-20 17:32 37.621428 -122.383152 196 14ft 28kts
29-Oct-20 17:33 37.615765 -122.379288 207 9ft 24kts
29-Oct-20 17:34 37.609129 -122.383646 189 15ft 4kts
29-Oct-20 17:35 37.608364 -122.383622 109 17ft 0kts
29-Oct-20 17:36 37.610277 -122.381364 28 14ft 47kts
29-Oct-20 17:37 37.631570 -122.367664 25 344ft 101kts
29-Oct-20 17:38 37.657202 -122.379627 325 879ft 109kts
29-Oct-20 17:39 37.683266 -122.400946 325 1366ft 113kts
29-Oct-20 17:40 37.707717 -122.425225 309 1853ft 113kts
29-Oct-20 17:42 37.733938 -122.447190 331 2356ft 116kts
29-Oct-20 17:43 37.762283 -122.464855 332 2852ft 111kts
29-Oct-20 17:44 37.789737 -122.481895 332 3347ft 109kts
29-Oct-20 17:45 37.817023 -122.498873 332 3850ft 109kts
29-Oct-20 17:46 37.844646 -122.516094 332 4358ft 111kts
29-Oct-20 17:47 37.870375 -122.500546 48 4497ft 129kts
29-Oct-20 17:48 37.894348 -122.465475 49 4497ft 133kts
29-Oct-20 17:49 37.917493 -122.431430 49 4825ft 119kts
29-Oct-20 17:50 37.938331 -122.400747 49 5326ft 112kts
29-Oct-20 17:51 37.960001 -122.368819 49 5496ft 125kts
29-Oct-20 17:52 37.982906 -122.335036 49 5497ft 127kts
29-Oct-20 17:53 38.005958 -122.300998 49 5498ft 127kts
29-Oct-20 17:54 38.028994 -122.266946 49 5499ft 127kts
29-Oct-20 17:55 38.052126 -122.232719 49 5500ft 128kts
29-Oct-20 17:56 38.075144 -122.198626 49 5500ft 127kts
29-Oct-20 17:57 38.098181 -122.164466 49 5497ft 127kts
29-Oct-20 17:58 38.121100 -122.130447 49 5504ft 128kts
29-Oct-20 17:59 38.144027 -122.096378 49 5499ft 127kts
29-Oct-20 18:00 38.166778 -122.061890 50 5500ft 127kts
29-Oct-20 18:00 38.186536 -122.034452 30 5498ft 127kts
29-Oct-20 18:02 38.224521 -122.036526 358 5505ft 126kts
29-Oct-20 18:02 38.253672 -122.036287 359 5499ft 127kts
29-Oct-20 18:04 38.294577 -122.035868 359 5499ft 127kts
29-Oct-20 18:04 38.323936 -122.035555 359 5503ft 127kts
29-Oct-20 18:06 38.365122 -122.035109 359 5496ft 126kts
29-Oct-20 18:06 38.394818 -122.034785 359 5378ft 132kts
29-Oct-20 18:07 38.431485 -122.034379 0 5077ft 131kts
29-Oct-20 18:08 38.467490 -122.033989 359 4771ft 129kts
29-Oct-20 18:09 38.502937 -122.033589 359 4528ft 125kts
29-Oct-20 18:10 38.536800 -122.033226 359 4503ft 119kts
29-Oct-20 18:11 38.569666 -122.032860 359 4501ft 118kts
29-Oct-20 18:12 38.602682 -122.032487 359 4501ft 118kts
29-Oct-20 18:13 38.635513 -122.032134 359 4500ft 118kts
29-Oct-20 18:14 38.668266 -122.031767 359 4499ft 118kts
29-Oct-20 18:15 38.701097 -122.031405 359 4500ft 118kts
29-Oct-20 18:16 38.733727 -122.031040 359 4499ft 118kts
29-Oct-20 18:17 38.766557 -122.030675 359 4499ft 118kts
29-Oct-20 18:18 38.799243 -122.030311 359 4500ft 118kts
29-Oct-20 18:19 38.832146 -122.029938 359 4500ft 118kts
29-Oct-20 18:20 38.865054 -122.029578 359 4500ft 118kts
29-Oct-20 18:21 38.897947 -122.029209 359 4499ft 118kts
29-Oct-20 18:22 38.930800 -122.028842 359 4500ft 118kts
29-Oct-20 18:23 38.963196 -122.031621 351 4500ft 117kts
29-Oct-20 18:24 38.995621 -122.037270 351 4499ft 117kts
29-Oct-20 18:25 39.028175 -122.043006 351 4499ft 117kts
29-Oct-20 18:26 39.060374 -122.048713 351 4500ft 118kts
29-Oct-20 18:27 39.093228 -122.054555 351 4501ft 120kts
29-Oct-20 18:28 39.126528 -122.060530 351 4499ft 121kts
29-Oct-20 18:29 39.159836 -122.066418 351 4499ft 121kts
29-Oct-20 18:30 39.193075 -122.072361 350 4499ft 121kts
29-Oct-20 18:31 39.226442 -122.078327 351 4499ft 121kts
29-Oct-20 18:32 39.259749 -122.084291 350 4499ft 121kts
29-Oct-20 18:33 39.292902 -122.090227 351 4500ft 121kts
29-Oct-20 18:34 39.326262 -122.096262 350 4499ft 121kts
29-Oct-20 18:35 39.359547 -122.102177 351 4500ft 121kts
29-Oct-20 18:36 39.392869 -122.108166 351 4499ft 121kts
29-Oct-20 18:37 39.426033 -122.114130 350 4500ft 121kts
29-Oct-20 18:38 39.459277 -122.120130 351 4499ft 121kts
29-Oct-20 18:39 39.492649 -122.126123 351 4500ft 121kts
29-Oct-20 18:40 39.525974 -122.132133 350 4500ft 121kts
29-Oct-20 18:41 39.558976 -122.138088 351 4500ft 121kts
29-Oct-20 18:42 39.592978 -122.144226 351 4323ft 130kts
29-Oct-20 18:43 39.629372 -122.150062 10 3914ft 133kts
29-Oct-20 18:44 39.665914 -122.147521 351 3515ft 132kts
29-Oct-20 18:45 39.702138 -122.154799 349 3106ft 131kts
29-Oct-20 18:46 39.738159 -122.162203 350 2707ft 130kts
29-Oct-20 18:47 39.773019 -122.169350 349 2509ft 121kts
29-Oct-20 18:48 39.805810 -122.176071 349 2501ft 117kts
29-Oct-20 18:49 39.838155 -122.182700 349 2501ft 117kts
29-Oct-20 18:50 39.870387 -122.189311 350 2500ft 117kts
29-Oct-20 18:51 39.902605 -122.195924 349 2500ft 117kts
29-Oct-20 18:52 39.934935 -122.202566 349 2499ft 117kts
29-Oct-20 18:53 39.967131 -122.209186 350 2500ft 117kts
29-Oct-20 18:54 39.999398 -122.215828 350 2499ft 117kts
29-Oct-20 18:55 40.031661 -122.222475 349 2499ft 117kts
29-Oct-20 18:56 40.063878 -122.229118 350 2499ft 117kts
29-Oct-20 18:57 40.096091 -122.235718 351 2499ft 117kts
29-Oct-20 18:58 40.128601 -122.240478 352 2500ft 117kts
29-Oct-20 18:59 40.161006 -122.244927 352 2499ft 117kts
29-Oct-20 19:00 40.193454 -122.249395 352 2500ft 117kts
29-Oct-20 19:01 40.225882 -122.253871 353 2498ft 117kts
29-Oct-20 19:02 40.258346 -122.258360 352 2500ft 118kts
29-Oct-20 19:03 40.291006 -122.260097 1 2498ft 117kts
29-Oct-20 19:04 40.323645 -122.258426 1 2500ft 117kts
29-Oct-20 19:05 40.356559 -122.256773 1 2420ft 122kts
29-Oct-20 19:06 40.390443 -122.255133 1 2178ft 126kts
29-Oct-20 19:07 40.425597 -122.253458 1 1872ft 126kts
29-Oct-20 19:08 40.457881 -122.267907 351 1573ft 125kts
29-Oct-20 19:09 40.491485 -122.266593 1 1502ft 118kts
29-Oct-20 19:10 40.523988 -122.264927 1 1501ft 116kts
29-Oct-20 19:11 40.543502 -122.281685 267 1364ft 100kts
29-Oct-20 19:12 40.519633 -122.294842 181 535ft 90kts
29-Oct-20 19:13 40.508274 -122.295868 304 502ft 0kts
29-Oct-20 19:14 40.506632 -122.298477 174 500ft 25kts
29-Oct-20 19:15 40.505079 -122.299272 274 496ft 0kts

Navigation Log

Ident Type
Flight plan parsing failed, navigation log unavailable